sensor_id;sensor_type;location;lat;lon;timestamp;temperature;humidity
44305;DHT22;30019;50.576;8.568;2022-07-12T00:01:04;15.20;99.90
44305;DHT22;30019;50.576;8.568;2022-07-12T00:03:30;15.20;99.90
44305;DHT22;30019;50.576;8.568;2022-07-12T00:05:56;15.10;99.90
44305;DHT22;30019;50.576;8.568;2022-07-12T00:08:23;15.00;99.90
44305;DHT22;30019;50.576;8.568;2022-07-12T00:10:48;15.00;99.90
44305;DHT22;30019;50.576;8.568;2022-07-12T00:13:14;15.00;99.90
44305;DHT22;30019;50.576;8.568;2022-07-12T00:15:41;14.90;99.90
44305;DHT22;30019;50.576;8.568;2022-07-12T00:18:06;14.90;99.90
44305;DHT22;30019;50.576;8.568;2022-07-12T00:20:32;14.90;99.90
44305;DHT22;30019;50.576;8.568;2022-07-12T00:22:58;14.80;99.90
44305;DHT22;30019;50.576;8.568;2022-07-12T00:25:23;14.70;99.90
44305;DHT22;30019;50.576;8.568;2022-07-12T00:27:51;14.70;99.90
44305;DHT22;30019;50.576;8.568;2022-07-12T00:30:17;14.60;99.90
44305;DHT22;30019;50.576;8.568;2022-07-12T00:32:43;14.60;99.90
44305;DHT22;30019;50.576;8.568;2022-07-12T00:35:08;14.50;99.90
44305;DHT22;30019;50.576;8.568;2022-07-12T00:37:34;14.50;99.90
44305;DHT22;30019;50.576;8.568;2022-07-12T00:39:59;14.40;99.90
44305;DHT22;30019;50.576;8.568;2022-07-12T00:42:26;14.40;99.90
44305;DHT22;30019;50.576;8.568;2022-07-12T00:44:52;14.30;99.90
44305;DHT22;30019;50.576;8.568;2022-07-12T00:47:31;14.30;99.90
44305;DHT22;30019;50.576;8.568;2022-07-12T00:49:57;14.30;99.90
44305;DHT22;30019;50.576;8.568;2022-07-12T00:52:23;14.20;99.90
44305;DHT22;30019;50.576;8.568;2022-07-12T00:54:49;14.20;99.90
44305;DHT22;30019;50.576;8.568;2022-07-12T00:57:15;14.20;99.90
44305;DHT22;30019;50.576;8.568;2022-07-12T00:59:41;14.10;99.90
44305;DHT22;30019;50.576;8.568;2022-07-12T01:02:07;14.00;99.90
44305;DHT22;30019;50.576;8.568;2022-07-12T01:04:33;14.00;99.90
44305;DHT22;30019;50.576;8.568;2022-07-12T01:07:00;14.00;99.90
44305;DHT22;30019;50.576;8.568;2022-07-12T01:09:26;13.90;99.90
44305;DHT22;30019;50.576;8.568;2022-07-12T01:11:52;13.90;99.90
44305;DHT22;30019;50.576;8.568;2022-07-12T01:14:17;13.80;99.90
44305;DHT22;30019;50.576;8.568;2022-07-12T01:16:43;13.80;99.90
44305;DHT22;30019;50.576;8.568;2022-07-12T01:19:11;13.80;99.90
44305;DHT22;30019;50.576;8.568;2022-07-12T01:21:44;13.80;99.90
44305;DHT22;30019;50.576;8.568;2022-07-12T01:24:11;13.80;99.90
44305;DHT22;30019;50.576;8.568;2022-07-12T01:26:38;13.70;99.90
44305;DHT22;30019;50.576;8.568;2022-07-12T01:29:05;13.70;99.90
44305;DHT22;30019;50.576;8.568;2022-07-12T01:31:31;13.60;99.90
44305;DHT22;30019;50.576;8.568;2022-07-12T01:33:58;13.70;99.90
44305;DHT22;30019;50.576;8.568;2022-07-12T01:36:24;13.60;99.90
44305;DHT22;30019;50.576;8.568;2022-07-12T01:38:50;13.60;99.90
44305;DHT22;30019;50.576;8.568;2022-07-12T01:41:16;13.60;99.90
44305;DHT22;30019;50.576;8.568;2022-07-12T01:43:42;13.50;99.90
44305;DHT22;30019;50.576;8.568;2022-07-12T01:46:07;13.50;99.90
44305;DHT22;30019;50.576;8.568;2022-07-12T01:48:33;13.40;99.90
44305;DHT22;30019;50.576;8.568;2022-07-12T01:50:58;13.40;99.90
44305;DHT22;30019;50.576;8.568;2022-07-12T01:53:24;13.50;99.90
44305;DHT22;30019;50.576;8.568;2022-07-12T01:55:50;13.40;99.90
44305;DHT22;30019;50.576;8.568;2022-07-12T01:58:16;13.40;99.90
44305;DHT22;30019;50.576;8.568;2022-07-12T02:00:42;13.30;99.90
44305;DHT22;30019;50.576;8.568;2022-07-12T02:03:12;13.30;99.90
44305;DHT22;30019;50.576;8.568;2022-07-12T02:05:38;13.20;99.90
44305;DHT22;30019;50.576;8.568;2022-07-12T02:08:03;13.20;99.90
44305;DHT22;30019;50.576;8.568;2022-07-12T02:10:29;13.10;99.90
44305;DHT22;30019;50.576;8.568;2022-07-12T02:12:55;13.10;99.90
44305;DHT22;30019;50.576;8.568;2022-07-12T02:15:20;13.10;99.90
44305;DHT22;30019;50.576;8.568;2022-07-12T02:17:46;13.00;99.90
44305;DHT22;30019;50.576;8.568;2022-07-12T02:20:13;13.00;99.90
44305;DHT22;30019;50.576;8.568;2022-07-12T02:22:38;13.00;99.90
44305;DHT22;30019;50.576;8.568;2022-07-12T02:25:04;12.90;99.90
44305;DHT22;30019;50.576;8.568;2022-07-12T02:27:29;12.90;99.90
44305;DHT22;30019;50.576;8.568;2022-07-12T02:29:55;12.90;99.90
44305;DHT22;30019;50.576;8.568;2022-07-12T02:32:21;12.80;99.90
44305;DHT22;30019;50.576;8.568;2022-07-12T02:34:46;12.80;99.90
44305;DHT22;30019;50.576;8.568;2022-07-12T02:37:12;12.80;99.90
44305;DHT22;30019;50.576;8.568;2022-07-12T02:39:37;12.80;99.90
44305;DHT22;30019;50.576;8.568;2022-07-12T02:42:03;12.80;99.90
44305;DHT22;30019;50.576;8.568;2022-07-12T02:44:29;12.80;99.90
44305;DHT22;30019;50.576;8.568;2022-07-12T02:46:54;12.80;99.90
44305;DHT22;30019;50.576;8.568;2022-07-12T02:49:20;12.80;99.90
44305;DHT22;30019;50.576;8.568;2022-07-12T02:51:45;12.70;99.90
44305;DHT22;30019;50.576;8.568;2022-07-12T02:54:11;12.70;99.90
44305;DHT22;30019;50.576;8.568;2022-07-12T02:56:36;12.60;99.90
44305;DHT22;30019;50.576;8.568;2022-07-12T02:59:02;12.60;99.90
44305;DHT22;30019;50.576;8.568;2022-07-12T03:01:27;12.60;99.90
44305;DHT22;30019;50.576;8.568;2022-07-12T03:03:53;12.50;99.90
44305;DHT22;30019;50.576;8.568;2022-07-12T03:06:19;12.50;99.90
44305;DHT22;30019;50.576;8.568;2022-07-12T03:08:44;12.50;99.90
44305;DHT22;30019;50.576;8.568;2022-07-12T03:11:10;12.50;99.90
44305;DHT22;30019;50.576;8.568;2022-07-12T03:13:35;12.50;99.90
44305;DHT22;30019;50.576;8.568;2022-07-12T03:16:01;12.50;99.90
44305;DHT22;30019;50.576;8.568;2022-07-12T03:18:26;12.40;99.90
44305;DHT22;30019;50.576;8.568;2022-07-12T03:20:52;12.40;99.90
44305;DHT22;30019;50.576;8.568;2022-07-12T03:23:18;12.40;99.90
44305;DHT22;30019;50.576;8.568;2022-07-12T03:25:43;12.40;99.90
44305;DHT22;30019;50.576;8.568;2022-07-12T03:28:09;12.30;99.90
44305;DHT22;30019;50.576;8.568;2022-07-12T03:30:35;12.30;99.90
44305;DHT22;30019;50.576;8.568;2022-07-12T03:33:00;12.20;99.90
44305;DHT22;30019;50.576;8.568;2022-07-12T03:35:26;12.20;99.90
44305;DHT22;30019;50.576;8.568;2022-07-12T03:37:52;12.20;99.90
44305;DHT22;30019;50.576;8.568;2022-07-12T03:40:19;12.10;99.90
44305;DHT22;30019;50.576;8.568;2022-07-12T03:42:46;12.10;99.90
44305;DHT22;30019;50.576;8.568;2022-07-12T03:45:13;12.10;99.90
44305;DHT22;30019;50.576;8.568;2022-07-12T03:47:39;12.10;99.90
44305;DHT22;30019;50.576;8.568;2022-07-12T03:50:07;12.10;99.90
44305;DHT22;30019;50.576;8.568;2022-07-12T03:52:34;12.10;99.90
44305;DHT22;30019;50.576;8.568;2022-07-12T03:55:00;12.20;99.90
44305;DHT22;30019;50.576;8.568;2022-07-12T03:57:27;12.20;99.90
44305;DHT22;30019;50.576;8.568;2022-07-12T03:59:53;12.30;99.90
44305;DHT22;30019;50.576;8.568;2022-07-12T04:02:19;12.30;99.90
44305;DHT22;30019;50.576;8.568;2022-07-12T04:04:44;12.30;99.90
44305;DHT22;30019;50.576;8.568;2022-07-12T04:07:10;12.30;99.90
44305;DHT22;30019;50.576;8.568;2022-07-12T04:09:36;12.40;99.90
44305;DHT22;30019;50.576;8.568;2022-07-12T04:12:02;12.40;99.90
44305;DHT22;30019;50.576;8.568;2022-07-12T04:14:28;12.40;99.90
44305;DHT22;30019;50.576;8.568;2022-07-12T04:16:54;12.40;99.90
44305;DHT22;30019;50.576;8.568;2022-07-12T04:19:20;12.40;99.90
44305;DHT22;30019;50.576;8.568;2022-07-12T04:21:49;12.40;99.90
44305;DHT22;30019;50.576;8.568;2022-07-12T04:24:14;12.50;99.90
44305;DHT22;30019;50.576;8.568;2022-07-12T04:26:40;12.50;99.90
44305;DHT22;30019;50.576;8.568;2022-07-12T04:29:06;12.60;99.90
44305;DHT22;30019;50.576;8.568;2022-07-12T04:31:32;12.60;99.90
44305;DHT22;30019;50.576;8.568;2022-07-12T04:33:57;12.60;99.90
44305;DHT22;30019;50.576;8.568;2022-07-12T04:36:23;12.60;99.90
44305;DHT22;30019;50.576;8.568;2022-07-12T04:38:48;12.70;99.90
44305;DHT22;30019;50.576;8.568;2022-07-12T04:41:14;12.70;99.90
44305;DHT22;30019;50.576;8.568;2022-07-12T04:43:39;12.80;99.90
44305;DHT22;30019;50.576;8.568;2022-07-12T04:46:09;12.80;99.90
44305;DHT22;30019;50.576;8.568;2022-07-12T04:48:35;12.90;99.90
44305;DHT22;30019;50.576;8.568;2022-07-12T04:51:01;12.90;99.90
44305;DHT22;30019;50.576;8.568;2022-07-12T04:53:28;12.90;99.90
44305;DHT22;30019;50.576;8.568;2022-07-12T04:55:57;13.00;99.90
44305;DHT22;30019;50.576;8.568;2022-07-12T04:58:23;13.00;99.90
44305;DHT22;30019;50.576;8.568;2022-07-12T05:00:49;13.10;99.90
44305;DHT22;30019;50.576;8.568;2022-07-12T05:03:15;13.20;99.90
44305;DHT22;30019;50.576;8.568;2022-07-12T05:05:41;13.30;99.90
44305;DHT22;30019;50.576;8.568;2022-07-12T05:08:07;13.30;99.90
44305;DHT22;30019;50.576;8.568;2022-07-12T05:10:32;13.40;99.90
44305;DHT22;30019;50.576;8.568;2022-07-12T05:12:58;13.40;99.90
44305;DHT22;30019;50.576;8.568;2022-07-12T05:15:23;13.50;99.90
44305;DHT22;30019;50.576;8.568;2022-07-12T05:17:49;13.60;99.90
44305;DHT22;30019;50.576;8.568;2022-07-12T05:20:15;13.80;99.90
44305;DHT22;30019;50.576;8.568;2022-07-12T05:22:40;13.90;99.90
44305;DHT22;30019;50.576;8.568;2022-07-12T05:25:09;14.10;99.90
44305;DHT22;30019;50.576;8.568;2022-07-12T05:27:35;14.40;99.90
44305;DHT22;30019;50.576;8.568;2022-07-12T05:30:01;14.50;99.90
44305;DHT22;30019;50.576;8.568;2022-07-12T05:32:27;14.70;99.90
44305;DHT22;30019;50.576;8.568;2022-07-12T05:34:52;14.80;99.90
44305;DHT22;30019;50.576;8.568;2022-07-12T05:37:18;14.80;99.90
44305;DHT22;30019;50.576;8.568;2022-07-12T05:39:43;15.00;99.90
44305;DHT22;30019;50.576;8.568;2022-07-12T05:42:09;15.10;99.90
44305;DHT22;30019;50.576;8.568;2022-07-12T05:44:35;15.10;99.90
44305;DHT22;30019;50.576;8.568;2022-07-12T05:47:00;15.30;99.90
44305;DHT22;30019;50.576;8.568;2022-07-12T05:49:26;15.40;99.90
44305;DHT22;30019;50.576;8.568;2022-07-12T05:51:51;15.60;99.90
44305;DHT22;30019;50.576;8.568;2022-07-12T05:54:35;15.70;99.90
44305;DHT22;30019;50.576;8.568;2022-07-12T05:57:01;15.90;99.90
44305;DHT22;30019;50.576;8.568;2022-07-12T05:59:27;16.10;99.90
44305;DHT22;30019;50.576;8.568;2022-07-12T06:01:54;16.10;99.90
44305;DHT22;30019;50.576;8.568;2022-07-12T06:04:19;16.10;99.90
44305;DHT22;30019;50.576;8.568;2022-07-12T06:06:45;16.20;99.90
44305;DHT22;30019;50.576;8.568;2022-07-12T06:09:11;16.10;99.90
44305;DHT22;30019;50.576;8.568;2022-07-12T06:11:36;16.20;99.90
44305;DHT22;30019;50.576;8.568;2022-07-12T06:14:02;16.10;99.90
44305;DHT22;30019;50.576;8.568;2022-07-12T06:16:27;16.10;99.90
44305;DHT22;30019;50.576;8.568;2022-07-12T06:18:53;16.20;99.90
44305;DHT22;30019;50.576;8.568;2022-07-12T06:21:18;16.40;99.90
44305;DHT22;30019;50.576;8.568;2022-07-12T06:23:44;16.50;99.90
44305;DHT22;30019;50.576;8.568;2022-07-12T06:26:09;16.50;99.90
44305;DHT22;30019;50.576;8.568;2022-07-12T06:28:35;16.40;99.90
44305;DHT22;30019;50.576;8.568;2022-07-12T06:31:02;16.50;99.90
44305;DHT22;30019;50.576;8.568;2022-07-12T06:33:28;16.60;99.90
44305;DHT22;30019;50.576;8.568;2022-07-12T06:35:53;16.80;99.90
44305;DHT22;30019;50.576;8.568;2022-07-12T06:38:19;17.10;99.90
44305;DHT22;30019;50.576;8.568;2022-07-12T06:40:44;17.30;99.90
44305;DHT22;30019;50.576;8.568;2022-07-12T06:43:11;17.30;99.90
44305;DHT22;30019;50.576;8.568;2022-07-12T06:45:37;17.50;99.90
44305;DHT22;30019;50.576;8.568;2022-07-12T06:48:03;17.70;99.90
44305;DHT22;30019;50.576;8.568;2022-07-12T06:50:30;17.70;99.90
44305;DHT22;30019;50.576;8.568;2022-07-12T06:52:55;17.90;99.90
44305;DHT22;30019;50.576;8.568;2022-07-12T06:55:21;18.00;99.90
44305;DHT22;30019;50.576;8.568;2022-07-12T06:57:46;18.10;99.90
44305;DHT22;30019;50.576;8.568;2022-07-12T07:00:12;18.20;99.90
44305;DHT22;30019;50.576;8.568;2022-07-12T07:02:38;18.30;99.90
44305;DHT22;30019;50.576;8.568;2022-07-12T07:05:05;18.40;99.90
44305;DHT22;30019;50.576;8.568;2022-07-12T07:07:31;18.40;99.90
44305;DHT22;30019;50.576;8.568;2022-07-12T07:09:56;18.40;99.90
44305;DHT22;30019;50.576;8.568;2022-07-12T07:12:22;18.40;99.90
44305;DHT22;30019;50.576;8.568;2022-07-12T07:14:48;18.70;99.90
44305;DHT22;30019;50.576;8.568;2022-07-12T07:17:18;18.80;99.90
44305;DHT22;30019;50.576;8.568;2022-07-12T07:19:45;19.00;99.90
44305;DHT22;30019;50.576;8.568;2022-07-12T07:22:11;19.10;99.90
44305;DHT22;30019;50.576;8.568;2022-07-12T07:24:37;19.20;99.90
44305;DHT22;30019;50.576;8.568;2022-07-12T07:27:03;19.40;99.90
44305;DHT22;30019;50.576;8.568;2022-07-12T07:29:29;19.60;99.90
44305;DHT22;30019;50.576;8.568;2022-07-12T07:32:13;19.80;99.90
44305;DHT22;30019;50.576;8.568;2022-07-12T07:34:39;20.40;99.90
44305;DHT22;30019;50.576;8.568;2022-07-12T07:37:05;20.90;99.90
44305;DHT22;30019;50.576;8.568;2022-07-12T07:39:30;21.20;99.90
44305;DHT22;30019;50.576;8.568;2022-07-12T07:41:56;21.30;99.90
44305;DHT22;30019;50.576;8.568;2022-07-12T07:44:21;21.30;99.90
44305;DHT22;30019;50.576;8.568;2022-07-12T07:46:47;21.20;99.90
44305;DHT22;30019;50.576;8.568;2022-07-12T07:49:12;21.20;99.90
44305;DHT22;30019;50.576;8.568;2022-07-12T07:51:38;21.10;99.90
44305;DHT22;30019;50.576;8.568;2022-07-12T07:54:04;20.90;99.90
44305;DHT22;30019;50.576;8.568;2022-07-12T07:56:30;21.00;99.90
44305;DHT22;30019;50.576;8.568;2022-07-12T07:58:56;21.10;99.90
44305;DHT22;30019;50.576;8.568;2022-07-12T08:01:21;21.30;99.90
44305;DHT22;30019;50.576;8.568;2022-07-12T08:04:14;22.00;99.90
44305;DHT22;30019;50.576;8.568;2022-07-12T08:06:41;23.00;99.90
44305;DHT22;30019;50.576;8.568;2022-07-12T08:09:07;23.30;99.90
44305;DHT22;30019;50.576;8.568;2022-07-12T08:11:33;22.90;99.90
44305;DHT22;30019;50.576;8.568;2022-07-12T08:13:59;23.00;99.90
44305;DHT22;30019;50.576;8.568;2022-07-12T08:16:25;22.70;99.90
44305;DHT22;30019;50.576;8.568;2022-07-12T08:18:51;22.40;99.90
44305;DHT22;30019;50.576;8.568;2022-07-12T08:21:16;21.50;99.90
44305;DHT22;30019;50.576;8.568;2022-07-12T08:23:42;21.50;99.90
44305;DHT22;30019;50.576;8.568;2022-07-12T08:26:08;21.40;99.90
44305;DHT22;30019;50.576;8.568;2022-07-12T08:28:33;21.60;99.90
44305;DHT22;30019;50.576;8.568;2022-07-12T08:30:59;22.10;99.90
44305;DHT22;30019;50.576;8.568;2022-07-12T08:33:24;23.00;99.90
44305;DHT22;30019;50.576;8.568;2022-07-12T08:35:50;23.50;99.90
44305;DHT22;30019;50.576;8.568;2022-07-12T08:38:15;23.30;97.90
44305;DHT22;30019;50.576;8.568;2022-07-12T08:40:42;23.50;98.50
44305;DHT22;30019;50.576;8.568;2022-07-12T08:43:07;23.80;96.10
44305;DHT22;30019;50.576;8.568;2022-07-12T08:45:33;24.30;96.90
44305;DHT22;30019;50.576;8.568;2022-07-12T08:47:59;25.20;95.40
44305;DHT22;30019;50.576;8.568;2022-07-12T08:50:24;24.70;94.90
44305;DHT22;30019;50.576;8.568;2022-07-12T08:52:53;25.50;92.90
44305;DHT22;30019;50.576;8.568;2022-07-12T08:55:28;24.50;93.50
44305;DHT22;30019;50.576;8.568;2022-07-12T08:57:59;24.30;94.60
44305;DHT22;30019;50.576;8.568;2022-07-12T09:00:26;23.70;94.50
44305;DHT22;30019;50.576;8.568;2022-07-12T09:03:01;22.60;95.80
44305;DHT22;30019;50.576;8.568;2022-07-12T09:05:32;22.50;97.00
44305;DHT22;30019;50.576;8.568;2022-07-12T09:10:28;23.30;96.60
44305;DHT22;30019;50.576;8.568;2022-07-12T09:12:54;24.20;94.00
44305;DHT22;30019;50.576;8.568;2022-07-12T09:15:21;25.00;93.60
44305;DHT22;30019;50.576;8.568;2022-07-12T09:18:03;25.70;93.10
44305;DHT22;30019;50.576;8.568;2022-07-12T09:20:36;26.10;91.50
44305;DHT22;30019;50.576;8.568;2022-07-12T09:23:12;25.90;91.20
44305;DHT22;30019;50.576;8.568;2022-07-12T09:25:38;25.80;92.00
44305;DHT22;30019;50.576;8.568;2022-07-12T09:28:06;25.50;91.10
44305;DHT22;30019;50.576;8.568;2022-07-12T09:30:32;25.70;92.20
44305;DHT22;30019;50.576;8.568;2022-07-12T09:32:59;25.50;90.80
44305;DHT22;30019;50.576;8.568;2022-07-12T09:38:48;25.50;91.10
44305;DHT22;30019;50.576;8.568;2022-07-12T09:41:20;25.10;90.30
44305;DHT22;30019;50.576;8.568;2022-07-12T09:43:47;25.10;89.90
44305;DHT22;30019;50.576;8.568;2022-07-12T09:46:17;25.20;91.50
44305;DHT22;30019;50.576;8.568;2022-07-12T09:48:44;25.50;90.10
44305;DHT22;30019;50.576;8.568;2022-07-12T09:51:13;25.50;89.40
44305;DHT22;30019;50.576;8.568;2022-07-12T09:53:46;25.00;89.10
44305;DHT22;30019;50.576;8.568;2022-07-12T09:56:17;24.90;89.00
44305;DHT22;30019;50.576;8.568;2022-07-12T10:01:16;24.80;89.80
44305;DHT22;30019;50.576;8.568;2022-07-12T10:03:43;25.20;88.70
44305;DHT22;30019;50.576;8.568;2022-07-12T10:06:09;25.40;88.30
44305;DHT22;30019;50.576;8.568;2022-07-12T10:08:36;25.30;86.70
44305;DHT22;30019;50.576;8.568;2022-07-12T10:11:02;24.80;88.10
44305;DHT22;30019;50.576;8.568;2022-07-12T10:13:28;25.10;89.40
44305;DHT22;30019;50.576;8.568;2022-07-12T10:16:02;24.70;88.40
44305;DHT22;30019;50.576;8.568;2022-07-12T10:18:28;25.70;88.80
44305;DHT22;30019;50.576;8.568;2022-07-12T10:20:54;26.80;87.10
44305;DHT22;30019;50.576;8.568;2022-07-12T10:25:46;28.70;82.30
44305;DHT22;30019;50.576;8.568;2022-07-12T10:28:15;28.70;76.30
44305;DHT22;30019;50.576;8.568;2022-07-12T10:30:44;29.00;77.10
44305;DHT22;30019;50.576;8.568;2022-07-12T10:33:21;30.90;73.50
44305;DHT22;30019;50.576;8.568;2022-07-12T10:36:01;31.70;70.60
44305;DHT22;30019;50.576;8.568;2022-07-12T10:38:28;31.80;69.40
44305;DHT22;30019;50.576;8.568;2022-07-12T10:40:54;30.60;66.70
44305;DHT22;30019;50.576;8.568;2022-07-12T10:43:22;30.70;69.70
44305;DHT22;30019;50.576;8.568;2022-07-12T10:46:14;31.80;66.00
44305;DHT22;30019;50.576;8.568;2022-07-12T10:48:41;33.30;64.90
44305;DHT22;30019;50.576;8.568;2022-07-12T10:51:18;33.90;58.20
44305;DHT22;30019;50.576;8.568;2022-07-12T10:53:46;32.50;58.80
44305;DHT22;30019;50.576;8.568;2022-07-12T10:56:18;32.10;60.90
44305;DHT22;30019;50.576;8.568;2022-07-12T10:58:52;33.40;60.70
44305;DHT22;30019;50.576;8.568;2022-07-12T11:01:21;34.50;57.80
44305;DHT22;30019;50.576;8.568;2022-07-12T11:04:02;35.70;54.80
44305;DHT22;30019;50.576;8.568;2022-07-12T11:06:28;35.10;52.90
44305;DHT22;30019;50.576;8.568;2022-07-12T11:08:59;34.60;54.40
44305;DHT22;30019;50.576;8.568;2022-07-12T11:11:27;35.00;52.40
44305;DHT22;30019;50.576;8.568;2022-07-12T11:13:54;35.00;53.50
44305;DHT22;30019;50.576;8.568;2022-07-12T11:16:21;34.70;54.30
44305;DHT22;30019;50.576;8.568;2022-07-12T11:18:47;35.20;52.50
44305;DHT22;30019;50.576;8.568;2022-07-12T11:21:13;35.70;51.60
44305;DHT22;30019;50.576;8.568;2022-07-12T11:23:39;36.10;50.40
44305;DHT22;30019;50.576;8.568;2022-07-12T11:26:07;35.70;49.90
44305;DHT22;30019;50.576;8.568;2022-07-12T11:28:33;35.70;49.80
44305;DHT22;30019;50.576;8.568;2022-07-12T11:31:07;35.50;51.50
44305;DHT22;30019;50.576;8.568;2022-07-12T11:33:35;35.80;50.80
44305;DHT22;30019;50.576;8.568;2022-07-12T11:36:09;35.70;49.80
44305;DHT22;30019;50.576;8.568;2022-07-12T11:38:36;35.00;50.40
44305;DHT22;30019;50.576;8.568;2022-07-12T11:41:04;34.10;50.40
44305;DHT22;30019;50.576;8.568;2022-07-12T11:43:30;32.90;54.30
44305;DHT22;30019;50.576;8.568;2022-07-12T11:45:57;33.20;52.10
44305;DHT22;30019;50.576;8.568;2022-07-12T11:48:23;34.00;52.10
44305;DHT22;30019;50.576;8.568;2022-07-12T11:50:55;34.40;51.40
44305;DHT22;30019;50.576;8.568;2022-07-12T11:53:25;33.00;51.60
44305;DHT22;30019;50.576;8.568;2022-07-12T11:55:55;33.40;54.40
44305;DHT22;30019;50.576;8.568;2022-07-12T11:58:22;33.70;53.10
44305;DHT22;30019;50.576;8.568;2022-07-12T12:00:49;32.40;52.40
44305;DHT22;30019;50.576;8.568;2022-07-12T12:03:16;31.00;56.00
44305;DHT22;30019;50.576;8.568;2022-07-12T12:05:43;31.00;56.30
44305;DHT22;30019;50.576;8.568;2022-07-12T12:08:10;31.20;55.40
44305;DHT22;30019;50.576;8.568;2022-07-12T12:10:36;31.10;55.70
44305;DHT22;30019;50.576;8.568;2022-07-12T12:13:03;30.80;56.00
44305;DHT22;30019;50.576;8.568;2022-07-12T12:15:30;29.50;58.30
44305;DHT22;30019;50.576;8.568;2022-07-12T12:17:58;29.30;60.80
44305;DHT22;30019;50.576;8.568;2022-07-12T12:20:28;29.40;60.40
44305;DHT22;30019;50.576;8.568;2022-07-12T12:22:56;29.70;58.20
44305;DHT22;30019;50.576;8.568;2022-07-12T12:25:23;29.70;60.10
44305;DHT22;30019;50.576;8.568;2022-07-12T12:28:03;29.90;58.60
44305;DHT22;30019;50.576;8.568;2022-07-12T12:30:31;30.10;58.30
44305;DHT22;30019;50.576;8.568;2022-07-12T12:32:59;30.20;58.80
44305;DHT22;30019;50.576;8.568;2022-07-12T12:35:35;30.20;57.70
44305;DHT22;30019;50.576;8.568;2022-07-12T12:38:03;29.80;59.80
44305;DHT22;30019;50.576;8.568;2022-07-12T12:40:31;30.00;60.80
44305;DHT22;30019;50.576;8.568;2022-07-12T12:43:11;30.30;59.30
44305;DHT22;30019;50.576;8.568;2022-07-12T12:45:50;29.60;58.90
44305;DHT22;30019;50.576;8.568;2022-07-12T12:48:29;28.80;60.00
44305;DHT22;30019;50.576;8.568;2022-07-12T12:51:09;28.70;62.00
44305;DHT22;30019;50.576;8.568;2022-07-12T12:53:36;28.50;61.00
44305;DHT22;30019;50.576;8.568;2022-07-12T12:58:32;28.30;63.30
44305;DHT22;30019;50.576;8.568;2022-07-12T13:00:57;28.60;62.20
44305;DHT22;30019;50.576;8.568;2022-07-12T13:03:23;28.60;62.30
44305;DHT22;30019;50.576;8.568;2022-07-12T13:05:50;27.80;62.00
44305;DHT22;30019;50.576;8.568;2022-07-12T13:08:16;28.30;64.30
44305;DHT22;30019;50.576;8.568;2022-07-12T13:10:43;29.00;64.00
44305;DHT22;30019;50.576;8.568;2022-07-12T13:13:10;29.60;61.40
44305;DHT22;30019;50.576;8.568;2022-07-12T13:15:36;29.20;60.20
44305;DHT22;30019;50.576;8.568;2022-07-12T13:18:03;28.90;60.70
44305;DHT22;30019;50.576;8.568;2022-07-12T13:20:30;28.40;60.80
44305;DHT22;30019;50.576;8.568;2022-07-12T13:22:56;28.60;62.80
44305;DHT22;30019;50.576;8.568;2022-07-12T13:25:22;29.30;62.60
44305;DHT22;30019;50.576;8.568;2022-07-12T13:27:48;30.10;60.40
44305;DHT22;30019;50.576;8.568;2022-07-12T13:30:15;30.60;58.80
44305;DHT22;30019;50.576;8.568;2022-07-12T13:32:42;30.60;57.60
44305;DHT22;30019;50.576;8.568;2022-07-12T13:35:09;30.60;58.40
44305;DHT22;30019;50.576;8.568;2022-07-12T13:37:37;30.60;59.00
44305;DHT22;30019;50.576;8.568;2022-07-12T13:40:03;30.20;57.10
44305;DHT22;30019;50.576;8.568;2022-07-12T13:42:46;30.10;60.00
44305;DHT22;30019;50.576;8.568;2022-07-12T13:45:14;30.30;57.60
44305;DHT22;30019;50.576;8.568;2022-07-12T13:47:40;30.10;58.10
44305;DHT22;30019;50.576;8.568;2022-07-12T13:50:07;30.00;59.40
44305;DHT22;30019;50.576;8.568;2022-07-12T13:52:33;30.30;59.30
44305;DHT22;30019;50.576;8.568;2022-07-12T13:54:59;30.50;59.00
44305;DHT22;30019;50.576;8.568;2022-07-12T13:57:24;30.90;59.40
44305;DHT22;30019;50.576;8.568;2022-07-12T13:59:50;31.30;56.60
44305;DHT22;30019;50.576;8.568;2022-07-12T14:02:17;31.90;57.00
44305;DHT22;30019;50.576;8.568;2022-07-12T14:04:42;32.10;54.50
44305;DHT22;30019;50.576;8.568;2022-07-12T14:07:08;31.60;55.50
44305;DHT22;30019;50.576;8.568;2022-07-12T14:09:34;31.20;54.30
44305;DHT22;30019;50.576;8.568;2022-07-12T14:11:59;31.30;53.60
44305;DHT22;30019;50.576;8.568;2022-07-12T14:14:27;31.20;55.30
44305;DHT22;30019;50.576;8.568;2022-07-12T14:17:11;31.30;54.50
44305;DHT22;30019;50.576;8.568;2022-07-12T14:19:37;31.40;56.80
44305;DHT22;30019;50.576;8.568;2022-07-12T14:22:03;32.30;57.10
44305;DHT22;30019;50.576;8.568;2022-07-12T14:24:28;32.00;52.10
44305;DHT22;30019;50.576;8.568;2022-07-12T14:26:54;31.00;54.50
44305;DHT22;30019;50.576;8.568;2022-07-12T14:29:19;31.00;55.10
44305;DHT22;30019;50.576;8.568;2022-07-12T14:31:45;31.60;54.00
44305;DHT22;30019;50.576;8.568;2022-07-12T14:34:12;31.90;53.80
44305;DHT22;30019;50.576;8.568;2022-07-12T14:36:37;31.70;53.50
44305;DHT22;30019;50.576;8.568;2022-07-12T14:39:03;32.20;52.80
44305;DHT22;30019;50.576;8.568;2022-07-12T14:41:29;31.60;53.00
44305;DHT22;30019;50.576;8.568;2022-07-12T14:43:55;32.00;53.60
44305;DHT22;30019;50.576;8.568;2022-07-12T14:46:22;32.60;52.20
44305;DHT22;30019;50.576;8.568;2022-07-12T14:48:47;32.50;51.10
44305;DHT22;30019;50.576;8.568;2022-07-12T14:51:13;31.90;53.30
44305;DHT22;30019;50.576;8.568;2022-07-12T14:53:38;32.10;53.80
44305;DHT22;30019;50.576;8.568;2022-07-12T14:56:04;31.90;52.60
44305;DHT22;30019;50.576;8.568;2022-07-12T14:58:30;31.20;53.60
44305;DHT22;30019;50.576;8.568;2022-07-12T15:00:56;30.90;54.30
44305;DHT22;30019;50.576;8.568;2022-07-12T15:03:22;31.30;55.30
44305;DHT22;30019;50.576;8.568;2022-07-12T15:05:47;31.60;53.40
44305;DHT22;30019;50.576;8.568;2022-07-12T15:08:13;31.10;54.20
44305;DHT22;30019;50.576;8.568;2022-07-12T15:10:39;30.60;53.50
44305;DHT22;30019;50.576;8.568;2022-07-12T15:13:04;31.00;55.70
44305;DHT22;30019;50.576;8.568;2022-07-12T15:15:30;31.40;53.20
44305;DHT22;30019;50.576;8.568;2022-07-12T15:17:55;31.50;54.30
44305;DHT22;30019;50.576;8.568;2022-07-12T15:20:21;31.20;53.40
44305;DHT22;30019;50.576;8.568;2022-07-12T15:22:47;31.20;54.50
44305;DHT22;30019;50.576;8.568;2022-07-12T15:25:12;31.00;52.40
44305;DHT22;30019;50.576;8.568;2022-07-12T15:27:38;30.60;53.30
44305;DHT22;30019;50.576;8.568;2022-07-12T15:30:04;30.10;53.70
44305;DHT22;30019;50.576;8.568;2022-07-12T15:32:30;30.10;54.90
44305;DHT22;30019;50.576;8.568;2022-07-12T15:34:55;30.10;54.20
44305;DHT22;30019;50.576;8.568;2022-07-12T15:37:22;30.10;54.60
44305;DHT22;30019;50.576;8.568;2022-07-12T15:39:48;30.10;53.80
44305;DHT22;30019;50.576;8.568;2022-07-12T15:42:13;30.20;55.90